sensor_id;sensor_type;location;lat;lon;timestamp;P1;durP1;ratioP1;P2;durP2;ratioP2
10096;SDS011;5087;42.662;23.466;2023-11-18T00:00:50;0.50;;;0.50;;
10096;SDS011;5087;42.662;23.466;2023-11-18T00:03:20;0.50;;;0.50;;
10096;SDS011;5087;42.662;23.466;2023-11-18T00:05:51;0.40;;;0.40;;
10096;SDS011;5087;42.662;23.466;2023-11-18T00:08:23;0.40;;;0.40;;
10096;SDS011;5087;42.662;23.466;2023-11-18T00:10:53;0.50;;;0.50;;
10096;SDS011;5087;42.662;23.466;2023-11-18T00:13:24;0.40;;;0.40;;
10096;SDS011;5087;42.662;23.466;2023-11-18T00:15:54;0.50;;;0.50;;
10096;SDS011;5087;42.662;23.466;2023-11-18T00:18:23;0.40;;;0.40;;
10096;SDS011;5087;42.662;23.466;2023-11-18T00:20:55;0.40;;;0.40;;
10096;SDS011;5087;42.662;23.466;2023-11-18T00:23:30;0.40;;;0.40;;
10096;SDS011;5087;42.662;23.466;2023-11-18T00:25:57;0.40;;;0.40;;
10096;SDS011;5087;42.662;23.466;2023-11-18T00:28:24;0.50;;;0.50;;
10096;SDS011;5087;42.662;23.466;2023-11-18T00:30:57;0.60;;;0.60;;
10096;SDS011;5087;42.662;23.466;2023-11-18T00:33:26;0.57;;;0.57;;
10096;SDS011;5087;42.662;23.466;2023-11-18T00:35:54;0.50;;;0.50;;
10096;SDS011;5087;42.662;23.466;2023-11-18T00:38:23;0.60;;;0.60;;
10096;SDS011;5087;42.662;23.466;2023-11-18T00:41:02;0.50;;;0.50;;
10096;SDS011;5087;42.662;23.466;2023-11-18T00:43:30;0.60;;;0.60;;
10096;SDS011;5087;42.662;23.466;2023-11-18T00:45:58;0.60;;;0.60;;
10096;SDS011;5087;42.662;23.466;2023-11-18T00:48:27;0.60;;;0.60;;
10096;SDS011;5087;42.662;23.466;2023-11-18T00:50:59;0.60;;;0.60;;
10096;SDS011;5087;42.662;23.466;2023-11-18T00:53:29;0.70;;;0.70;;
10096;SDS011;5087;42.662;23.466;2023-11-18T00:58:43;0.50;;;0.50;;
10096;SDS011;5087;42.662;23.466;2023-11-18T01:01:10;0.70;;;0.70;;
10096;SDS011;5087;42.662;23.466;2023-11-18T01:03:37;0.60;;;0.60;;
10096;SDS011;5087;42.662;23.466;2023-11-18T01:06:05;0.70;;;0.70;;
10096;SDS011;5087;42.662;23.466;2023-11-18T01:08:32;0.70;;;0.70;;
10096;SDS011;5087;42.662;23.466;2023-11-18T01:10:59;0.63;;;0.63;;
10096;SDS011;5087;42.662;23.466;2023-11-18T01:13:34;0.73;;;0.73;;
10096;SDS011;5087;42.662;23.466;2023-11-18T01:16:07;0.70;;;0.70;;
10096;SDS011;5087;42.662;23.466;2023-11-18T01:18:36;0.80;;;0.80;;
10096;SDS011;5087;42.662;23.466;2023-11-18T01:21:04;0.80;;;0.80;;
10096;SDS011;5087;42.662;23.466;2023-11-18T01:23:34;0.70;;;0.70;;
10096;SDS011;5087;42.662;23.466;2023-11-18T01:26:04;0.80;;;0.80;;
10096;SDS011;5087;42.662;23.466;2023-11-18T01:28:35;0.87;;;0.87;;
10096;SDS011;5087;42.662;23.466;2023-11-18T01:31:08;0.87;;;0.87;;
10096;SDS011;5087;42.662;23.466;2023-11-18T01:33:36;0.80;;;0.80;;
10096;SDS011;5087;42.662;23.466;2023-11-18T01:36:11;0.90;;;0.90;;
10096;SDS011;5087;42.662;23.466;2023-11-18T01:38:38;0.90;;;0.90;;
10096;SDS011;5087;42.662;23.466;2023-11-18T01:41:08;1.00;;;1.00;;
10096;SDS011;5087;42.662;23.466;2023-11-18T01:43:40;1.00;;;1.00;;
10096;SDS011;5087;42.662;23.466;2023-11-18T01:46:08;0.90;;;0.90;;
10096;SDS011;5087;42.662;23.466;2023-11-18T01:48:38;0.90;;;0.90;;
10096;SDS011;5087;42.662;23.466;2023-11-18T01:51:11;0.90;;;0.90;;
10096;SDS011;5087;42.662;23.466;2023-11-18T01:53:40;0.80;;;0.80;;
10096;SDS011;5087;42.662;23.466;2023-11-18T01:56:10;0.80;;;0.80;;
10096;SDS011;5087;42.662;23.466;2023-11-18T01:58:40;0.70;;;0.70;;
10096;SDS011;5087;42.662;23.466;2023-11-18T02:01:09;0.83;;;0.83;;
10096;SDS011;5087;42.662;23.466;2023-11-18T02:03:48;0.60;;;0.60;;
10096;SDS011;5087;42.662;23.466;2023-11-18T02:06:18;0.60;;;0.60;;
10096;SDS011;5087;42.662;23.466;2023-11-18T02:08:46;0.60;;;0.60;;
10096;SDS011;5087;42.662;23.466;2023-11-18T02:11:26;0.70;;;0.70;;
10096;SDS011;5087;42.662;23.466;2023-11-18T02:16:45;0.90;;;0.90;;
10096;SDS011;5087;42.662;23.466;2023-11-18T02:19:20;1.10;;;1.10;;
10096;SDS011;5087;42.662;23.466;2023-11-18T02:21:53;1.17;;;1.17;;
10096;SDS011;5087;42.662;23.466;2023-11-18T02:24:31;1.20;;;1.20;;
10096;SDS011;5087;42.662;23.466;2023-11-18T02:27:04;1.43;;;1.43;;
10096;SDS011;5087;42.662;23.466;2023-11-18T02:29:32;1.53;;;1.53;;
10096;SDS011;5087;42.662;23.466;2023-11-18T02:32:04;1.60;;;1.60;;
10096;SDS011;5087;42.662;23.466;2023-11-18T02:34:45;1.80;;;1.80;;
10096;SDS011;5087;42.662;23.466;2023-11-18T02:37:19;1.90;;;1.90;;
10096;SDS011;5087;42.662;23.466;2023-11-18T02:39:48;2.00;;;2.00;;
10096;SDS011;5087;42.662;23.466;2023-11-18T02:42:27;2.10;;;2.10;;
10096;SDS011;5087;42.662;23.466;2023-11-18T02:44:58;2.07;;;2.07;;
10096;SDS011;5087;42.662;23.466;2023-11-18T02:47:25;2.40;;;2.40;;
10096;SDS011;5087;42.662;23.466;2023-11-18T02:49:53;2.30;;;2.30;;
10096;SDS011;5087;42.662;23.466;2023-11-18T02:52:28;2.30;;;2.30;;
10096;SDS011;5087;42.662;23.466;2023-11-18T02:55:02;2.60;;;2.60;;
10096;SDS011;5087;42.662;23.466;2023-11-18T02:57:38;2.50;;;2.50;;
10096;SDS011;5087;42.662;23.466;2023-11-18T03:00:05;2.50;;;2.50;;
10096;SDS011;5087;42.662;23.466;2023-11-18T03:02:37;2.50;;;2.50;;
10096;SDS011;5087;42.662;23.466;2023-11-18T03:05:05;2.57;;;2.57;;
10096;SDS011;5087;42.662;23.466;2023-11-18T03:07:43;2.60;;;2.60;;
10096;SDS011;5087;42.662;23.466;2023-11-18T03:10:14;2.53;;;2.53;;
10096;SDS011;5087;42.662;23.466;2023-11-18T03:12:53;2.20;;;2.20;;
10096;SDS011;5087;42.662;23.466;2023-11-18T03:15:30;2.57;;;2.57;;
10096;SDS011;5087;42.662;23.466;2023-11-18T03:17:57;2.53;;;2.53;;
10096;SDS011;5087;42.662;23.466;2023-11-18T03:20:24;2.27;;;2.27;;
10096;SDS011;5087;42.662;23.466;2023-11-18T03:22:58;2.10;;;2.10;;
10096;SDS011;5087;42.662;23.466;2023-11-18T03:25:28;2.30;;;2.30;;
10096;SDS011;5087;42.662;23.466;2023-11-18T03:27:59;2.60;;;2.60;;
10096;SDS011;5087;42.662;23.466;2023-11-18T03:30:31;2.80;;;2.80;;
10096;SDS011;5087;42.662;23.466;2023-11-18T03:33:03;2.70;;;2.70;;
10096;SDS011;5087;42.662;23.466;2023-11-18T03:35:30;2.80;;;2.80;;
10096;SDS011;5087;42.662;23.466;2023-11-18T03:38:01;2.83;;;2.83;;
10096;SDS011;5087;42.662;23.466;2023-11-18T03:40:32;2.90;;;2.90;;
10096;SDS011;5087;42.662;23.466;2023-11-18T03:43:02;2.90;;;2.90;;
10096;SDS011;5087;42.662;23.466;2023-11-18T03:45:35;2.90;;;2.90;;
10096;SDS011;5087;42.662;23.466;2023-11-18T03:48:05;2.90;;;2.90;;
10096;SDS011;5087;42.662;23.466;2023-11-18T03:50:33;2.70;;;2.70;;
10096;SDS011;5087;42.662;23.466;2023-11-18T03:53:04;2.87;;;2.87;;
10096;SDS011;5087;42.662;23.466;2023-11-18T03:55:32;2.67;;;2.67;;
10096;SDS011;5087;42.662;23.466;2023-11-18T03:58:04;2.90;;;2.90;;
10096;SDS011;5087;42.662;23.466;2023-11-18T04:00:34;3.00;;;3.00;;
10096;SDS011;5087;42.662;23.466;2023-11-18T04:03:07;2.90;;;2.90;;
10096;SDS011;5087;42.662;23.466;2023-11-18T04:05:41;3.13;;;3.13;;
10096;SDS011;5087;42.662;23.466;2023-11-18T04:08:08;2.90;;;2.90;;
10096;SDS011;5087;42.662;23.466;2023-11-18T04:10:38;3.10;;;3.10;;
10096;SDS011;5087;42.662;23.466;2023-11-18T04:13:10;3.10;;;3.10;;
10096;SDS011;5087;42.662;23.466;2023-11-18T04:15:38;3.20;;;3.20;;
10096;SDS011;5087;42.662;23.466;2023-11-18T04:18:08;3.40;;;3.40;;
10096;SDS011;5087;42.662;23.466;2023-11-18T04:20:37;3.43;;;3.43;;
10096;SDS011;5087;42.662;23.466;2023-11-18T04:23:07;3.40;;;3.40;;
10096;SDS011;5087;42.662;23.466;2023-11-18T04:25:37;3.40;;;3.40;;
10096;SDS011;5087;42.662;23.466;2023-11-18T04:28:11;3.10;;;3.10;;
10096;SDS011;5087;42.662;23.466;2023-11-18T04:30:39;2.90;;;2.90;;
10096;SDS011;5087;42.662;23.466;2023-11-18T04:33:09;3.40;;;3.40;;
10096;SDS011;5087;42.662;23.466;2023-11-18T04:35:42;3.30;;;3.30;;
10096;SDS011;5087;42.662;23.466;2023-11-18T04:38:15;3.23;;;3.23;;
10096;SDS011;5087;42.662;23.466;2023-11-18T04:40:46;3.60;;;3.60;;
10096;SDS011;5087;42.662;23.466;2023-11-18T04:43:14;3.60;;;3.60;;
10096;SDS011;5087;42.662;23.466;2023-11-18T04:45:45;3.57;;;3.57;;
10096;SDS011;5087;42.662;23.466;2023-11-18T04:48:12;3.40;;;3.40;;
10096;SDS011;5087;42.662;23.466;2023-11-18T04:50:43;3.40;;;3.40;;
10096;SDS011;5087;42.662;23.466;2023-11-18T04:53:13;3.20;;;3.20;;
10096;SDS011;5087;42.662;23.466;2023-11-18T04:55:43;3.00;;;3.00;;
10096;SDS011;5087;42.662;23.466;2023-11-18T04:58:21;2.87;;;2.87;;
10096;SDS011;5087;42.662;23.466;2023-11-18T05:00:49;2.80;;;2.80;;
10096;SDS011;5087;42.662;23.466;2023-11-18T05:03:17;2.73;;;2.73;;
10096;SDS011;5087;42.662;23.466;2023-11-18T05:05:47;2.63;;;2.63;;
10096;SDS011;5087;42.662;23.466;2023-11-18T05:08:18;2.50;;;2.50;;
10096;SDS011;5087;42.662;23.466;2023-11-18T05:10:47;2.50;;;2.50;;
10096;SDS011;5087;42.662;23.466;2023-11-18T05:13:19;2.60;;;2.60;;
10096;SDS011;5087;42.662;23.466;2023-11-18T05:15:50;2.60;;;2.60;;
10096;SDS011;5087;42.662;23.466;2023-11-18T05:18:23;2.20;;;2.20;;
10096;SDS011;5087;42.662;23.466;2023-11-18T05:20:54;2.70;;;2.70;;
10096;SDS011;5087;42.662;23.466;2023-11-18T05:23:22;2.77;;;2.77;;
10096;SDS011;5087;42.662;23.466;2023-11-18T05:25:53;2.40;;;2.40;;
10096;SDS011;5087;42.662;23.466;2023-11-18T05:28:22;2.60;;;2.60;;
10096;SDS011;5087;42.662;23.466;2023-11-18T05:30:52;2.40;;;2.40;;
10096;SDS011;5087;42.662;23.466;2023-11-18T05:33:28;2.67;;;2.67;;
10096;SDS011;5087;42.662;23.466;2023-11-18T05:35:55;2.50;;;2.50;;
10096;SDS011;5087;42.662;23.466;2023-11-18T05:38:26;2.80;;;2.80;;
10096;SDS011;5087;42.662;23.466;2023-11-18T05:40:57;2.73;;;2.73;;
10096;SDS011;5087;42.662;23.466;2023-11-18T05:43:28;2.93;;;2.93;;
10096;SDS011;5087;42.662;23.466;2023-11-18T05:46:02;2.80;;;2.80;;
10096;SDS011;5087;42.662;23.466;2023-11-18T05:51:39;3.00;;;3.00;;
10096;SDS011;5087;42.662;23.466;2023-11-18T05:54:07;3.10;;;3.10;;
10096;SDS011;5087;42.662;23.466;2023-11-18T05:56:35;2.93;;;2.93;;
10096;SDS011;5087;42.662;23.466;2023-11-18T05:59:04;3.10;;;3.10;;
10096;SDS011;5087;42.662;23.466;2023-11-18T06:01:33;2.93;;;2.93;;
10096;SDS011;5087;42.662;23.466;2023-11-18T06:04:02;3.00;;;3.00;;
10096;SDS011;5087;42.662;23.466;2023-11-18T06:06:33;3.00;;;3.00;;
10096;SDS011;5087;42.662;23.466;2023-11-18T06:09:02;3.07;;;3.07;;
10096;SDS011;5087;42.662;23.466;2023-11-18T06:11:37;3.20;;;3.20;;
10096;SDS011;5087;42.662;23.466;2023-11-18T06:14:10;3.10;;;3.10;;
10096;SDS011;5087;42.662;23.466;2023-11-18T06:16:38;2.90;;;2.90;;
10096;SDS011;5087;42.662;23.466;2023-11-18T06:19:06;3.00;;;3.00;;
10096;SDS011;5087;42.662;23.466;2023-11-18T06:21:33;3.00;;;3.00;;
10096;SDS011;5087;42.662;23.466;2023-11-18T06:24:01;3.07;;;3.07;;
10096;SDS011;5087;42.662;23.466;2023-11-18T06:26:31;3.00;;;3.00;;
10096;SDS011;5087;42.662;23.466;2023-11-18T06:29:04;3.00;;;3.00;;
10096;SDS011;5087;42.662;23.466;2023-11-18T06:31:32;3.07;;;3.07;;
10096;SDS011;5087;42.662;23.466;2023-11-18T06:34:06;3.13;;;3.13;;
10096;SDS011;5087;42.662;23.466;2023-11-18T06:36:33;3.00;;;3.00;;
10096;SDS011;5087;42.662;23.466;2023-11-18T06:39:03;2.90;;;2.90;;
10096;SDS011;5087;42.662;23.466;2023-11-18T06:41:33;3.07;;;3.07;;
10096;SDS011;5087;42.662;23.466;2023-11-18T06:44:13;3.07;;;3.07;;
10096;SDS011;5087;42.662;23.466;2023-11-18T06:46:45;3.20;;;3.20;;
10096;SDS011;5087;42.662;23.466;2023-11-18T06:49:16;3.20;;;3.20;;
10096;SDS011;5087;42.662;23.466;2023-11-18T06:51:44;3.30;;;3.30;;
10096;SDS011;5087;42.662;23.466;2023-11-18T06:54:23;3.37;;;3.37;;
10096;SDS011;5087;42.662;23.466;2023-11-18T06:56:54;3.57;;;3.57;;
10096;SDS011;5087;42.662;23.466;2023-11-18T06:59:21;3.30;;;3.30;;
10096;SDS011;5087;42.662;23.466;2023-11-18T07:01:53;3.30;;;3.30;;
10096;SDS011;5087;42.662;23.466;2023-11-18T07:04:21;3.47;;;3.47;;
10096;SDS011;5087;42.662;23.466;2023-11-18T07:06:48;3.50;;;3.50;;
10096;SDS011;5087;42.662;23.466;2023-11-18T07:09:19;3.50;;;3.50;;
10096;SDS011;5087;42.662;23.466;2023-11-18T07:11:47;3.50;;;3.50;;
10096;SDS011;5087;42.662;23.466;2023-11-18T07:14:18;3.40;;;3.40;;
10096;SDS011;5087;42.662;23.466;2023-11-18T07:16:45;3.50;;;3.50;;
10096;SDS011;5087;42.662;23.466;2023-11-18T07:19:20;3.30;;;3.30;;
10096;SDS011;5087;42.662;23.466;2023-11-18T07:21:49;3.20;;;3.20;;
10096;SDS011;5087;42.662;23.466;2023-11-18T07:24:19;3.60;;;3.60;;
10096;SDS011;5087;42.662;23.466;2023-11-18T07:26:47;3.47;;;3.47;;
10096;SDS011;5087;42.662;23.466;2023-11-18T07:29:17;3.60;;;3.60;;
10096;SDS011;5087;42.662;23.466;2023-11-18T07:31:49;3.50;;;3.50;;
10096;SDS011;5087;42.662;23.466;2023-11-18T07:34:27;3.80;;;3.80;;
10096;SDS011;5087;42.662;23.466;2023-11-18T07:36:54;3.60;;;3.60;;
10096;SDS011;5087;42.662;23.466;2023-11-18T07:39:22;3.73;;;3.73;;
10096;SDS011;5087;42.662;23.466;2023-11-18T07:42:09;3.50;;;3.50;;
10096;SDS011;5087;42.662;23.466;2023-11-18T07:44:37;3.67;;;3.67;;
10096;SDS011;5087;42.662;23.466;2023-11-18T07:47:05;3.60;;;3.60;;
10096;SDS011;5087;42.662;23.466;2023-11-18T07:49:34;3.70;;;3.70;;
10096;SDS011;5087;42.662;23.466;2023-11-18T07:52:05;3.80;;;3.80;;
10096;SDS011;5087;42.662;23.466;2023-11-18T07:54:33;4.07;;;3.97;;
10096;SDS011;5087;42.662;23.466;2023-11-18T07:57:04;3.80;;;3.80;;
10096;SDS011;5087;42.662;23.466;2023-11-18T07:59:37;4.20;;;4.10;;
10096;SDS011;5087;42.662;23.466;2023-11-18T08:02:07;4.33;;;4.23;;
10096;SDS011;5087;42.662;23.466;2023-11-18T08:04:37;3.90;;;3.90;;
10096;SDS011;5087;42.662;23.466;2023-11-18T08:07:05;3.77;;;3.77;;
10096;SDS011;5087;42.662;23.466;2023-11-18T08:09:38;4.13;;;4.03;;
10096;SDS011;5087;42.662;23.466;2023-11-18T08:12:07;4.10;;;4.00;;
10096;SDS011;5087;42.662;23.466;2023-11-18T08:14:35;3.97;;;3.90;;
10096;SDS011;5087;42.662;23.466;2023-11-18T08:17:02;4.23;;;4.13;;
10096;SDS011;5087;42.662;23.466;2023-11-18T08:19:31;4.50;;;4.40;;
10096;SDS011;5087;42.662;23.466;2023-11-18T08:22:04;4.40;;;4.30;;
10096;SDS011;5087;42.662;23.466;2023-11-18T08:24:31;3.70;;;3.70;;
10096;SDS011;5087;42.662;23.466;2023-11-18T08:27:05;4.10;;;4.00;;
10096;SDS011;5087;42.662;23.466;2023-11-18T08:29:35;4.23;;;4.13;;
10096;SDS011;5087;42.662;23.466;2023-11-18T08:32:07;4.50;;;4.40;;
10096;SDS011;5087;42.662;23.466;2023-11-18T08:34:35;4.43;;;4.33;;
10096;SDS011;5087;42.662;23.466;2023-11-18T08:37:07;4.20;;;4.10;;
10096;SDS011;5087;42.662;23.466;2023-11-18T08:39:35;4.30;;;4.20;;
10096;SDS011;5087;42.662;23.466;2023-11-18T08:42:02;4.17;;;4.07;;
10096;SDS011;5087;42.662;23.466;2023-11-18T08:44:36;4.30;;;4.20;;
10096;SDS011;5087;42.662;23.466;2023-11-18T08:47:06;4.30;;;4.20;;
10096;SDS011;5087;42.662;23.466;2023-11-18T08:49:34;4.53;;;4.43;;
10096;SDS011;5087;42.662;23.466;2023-11-18T08:52:07;4.70;;;4.60;;
10096;SDS011;5087;42.662;23.466;2023-11-18T08:54:38;4.40;;;4.30;;
10096;SDS011;5087;42.662;23.466;2023-11-18T08:57:25;4.77;;;4.67;;
10096;SDS011;5087;42.662;23.466;2023-11-18T09:00:02;4.47;;;4.37;;
10096;SDS011;5087;42.662;23.466;2023-11-18T09:02:54;4.73;;;4.63;;
10096;SDS011;5087;42.662;23.466;2023-11-18T09:05:20;4.63;;;4.53;;
10096;SDS011;5087;42.662;23.466;2023-11-18T09:07:49;4.70;;;4.60;;
10096;SDS011;5087;42.662;23.466;2023-11-18T09:10:18;4.70;;;4.60;;
10096;SDS011;5087;42.662;23.466;2023-11-18T09:12:47;4.67;;;4.57;;
10096;SDS011;5087;42.662;23.466;2023-11-18T09:15:14;4.73;;;4.63;;
10096;SDS011;5087;42.662;23.466;2023-11-18T09:17:47;4.67;;;4.57;;
10096;SDS011;5087;42.662;23.466;2023-11-18T09:20:15;4.57;;;4.47;;
10096;SDS011;5087;42.662;23.466;2023-11-18T09:22:45;4.60;;;4.50;;
10096;SDS011;5087;42.662;23.466;2023-11-18T09:25:15;4.63;;;4.53;;
10096;SDS011;5087;42.662;23.466;2023-11-18T09:27:50;4.60;;;4.50;;
10096;SDS011;5087;42.662;23.466;2023-11-18T09:30:17;4.73;;;4.63;;
10096;SDS011;5087;42.662;23.466;2023-11-18T09:32:44;4.57;;;4.47;;
10096;SDS011;5087;42.662;23.466;2023-11-18T09:35:16;4.70;;;4.60;;
10096;SDS011;5087;42.662;23.466;2023-11-18T09:37:45;4.30;;;4.20;;
10096;SDS011;5087;42.662;23.466;2023-11-18T09:40:17;4.40;;;4.30;;
10096;SDS011;5087;42.662;23.466;2023-11-18T09:42:48;4.60;;;4.50;;
10096;SDS011;5087;42.662;23.466;2023-11-18T09:45:16;4.50;;;4.40;;
10096;SDS011;5087;42.662;23.466;2023-11-18T09:47:45;4.70;;;4.60;;
10096;SDS011;5087;42.662;23.466;2023-11-18T09:50:16;4.40;;;4.30;;
10096;SDS011;5087;42.662;23.466;2023-11-18T09:52:49;4.67;;;4.57;;
10096;SDS011;5087;42.662;23.466;2023-11-18T09:55:28;4.60;;;4.50;;
10096;SDS011;5087;42.662;23.466;2023-11-18T09:58:03;4.80;;;4.70;;
10096;SDS011;5087;42.662;23.466;2023-11-18T10:00:38;4.70;;;4.60;;
10096;SDS011;5087;42.662;23.466;2023-11-18T10:03:08;4.77;;;4.67;;
10096;SDS011;5087;42.662;23.466;2023-11-18T10:05:43;4.43;;;4.33;;
10096;SDS011;5087;42.662;23.466;2023-11-18T10:08:20;4.77;;;4.67;;
10096;SDS011;5087;42.662;23.466;2023-11-18T10:10:53;4.70;;;4.60;;
10096;SDS011;5087;42.662;23.466;2023-11-18T10:13:31;4.73;;;4.63;;
10096;SDS011;5087;42.662;23.466;2023-11-18T10:16:00;4.80;;;4.70;;
10096;SDS011;5087;42.662;23.466;2023-11-18T10:18:30;4.87;;;4.77;;
10096;SDS011;5087;42.662;23.466;2023-11-18T10:21:00;5.10;;;5.00;;
10096;SDS011;5087;42.662;23.466;2023-11-18T10:23:29;5.00;;;4.90;;
10096;SDS011;5087;42.662;23.466;2023-11-18T10:26:00;4.97;;;4.87;;
10096;SDS011;5087;42.662;23.466;2023-11-18T10:28:29;4.67;;;4.57;;
10096;SDS011;5087;42.662;23.466;2023-11-18T10:30:58;4.90;;;4.80;;
10096;SDS011;5087;42.662;23.466;2023-11-18T10:33:29;4.60;;;4.50;;
10096;SDS011;5087;42.662;23.466;2023-11-18T10:35:57;4.90;;;4.80;;
10096;SDS011;5087;42.662;23.466;2023-11-18T10:38:29;4.60;;;4.50;;
10096;SDS011;5087;42.662;23.466;2023-11-18T10:40:58;4.87;;;4.77;;
10096;SDS011;5087;42.662;23.466;2023-11-18T10:43:31;4.80;;;4.70;;
10096;SDS011;5087;42.662;23.466;2023-11-18T10:46:04;4.63;;;4.53;;
10096;SDS011;5087;42.662;23.466;2023-11-18T10:48:38;4.50;;;4.40;;
10096;SDS011;5087;42.662;23.466;2023-11-18T10:51:08;5.00;;;4.90;;
10096;SDS011;5087;42.662;23.466;2023-11-18T10:53:39;5.17;;;5.07;;
10096;SDS011;5087;42.662;23.466;2023-11-18T10:56:20;5.10;;;5.00;;
10096;SDS011;5087;42.662;23.466;2023-11-18T10:58:52;5.20;;;5.10;;
10096;SDS011;5087;42.662;23.466;2023-11-18T11:01:28;5.00;;;4.90;;
10096;SDS011;5087;42.662;23.466;2023-11-18T11:03:57;5.13;;;5.03;;
10096;SDS011;5087;42.662;23.466;2023-11-18T11:06:25;4.80;;;4.70;;
10096;SDS011;5087;42.662;23.466;2023-11-18T11:08:56;4.67;;;4.57;;
10096;SDS011;5087;42.662;23.466;2023-11-18T11:11:28;4.90;;;4.80;;
10096;SDS011;5087;42.662;23.466;2023-11-18T11:14:03;4.87;;;4.77;;
10096;SDS011;5087;42.662;23.466;2023-11-18T11:16:33;5.07;;;4.97;;
10096;SDS011;5087;42.662;23.466;2023-11-18T11:19:11;5.00;;;4.90;;
10096;SDS011;5087;42.662;23.466;2023-11-18T11:21:55;4.90;;;4.80;;
10096;SDS011;5087;42.662;23.466;2023-11-18T11:24:34;4.83;;;4.73;;
10096;SDS011;5087;42.662;23.466;2023-11-18T11:27:21;5.30;;;5.20;;
10096;SDS011;5087;42.662;23.466;2023-11-18T11:29:57;5.13;;;5.03;;
10096;SDS011;5087;42.662;23.466;2023-11-18T11:32:35;5.10;;;5.00;;
10096;SDS011;5087;42.662;23.466;2023-11-18T11:35:14;5.17;;;5.07;;
10096;SDS011;5087;42.662;23.466;2023-11-18T11:37:46;5.00;;;4.90;;
10096;SDS011;5087;42.662;23.466;2023-11-18T11:40:15;4.70;;;4.60;;
10096;SDS011;5087;42.662;23.466;2023-11-18T11:42:49;4.97;;;4.87;;
10096;SDS011;5087;42.662;23.466;2023-11-18T11:45:21;4.93;;;4.83;;
10096;SDS011;5087;42.662;23.466;2023-11-18T11:47:54;5.10;;;5.00;;
10096;SDS011;5087;42.662;23.466;2023-11-18T11:50:43;5.03;;;4.93;;
10096;SDS011;5087;42.662;23.466;2023-11-18T11:53:20;5.20;;;5.10;;
10096;SDS011;5087;42.662;23.466;2023-11-18T11:55:54;5.40;;;5.30;;
10096;SDS011;5087;42.662;23.466;2023-11-18T11:58:32;5.23;;;5.13;;
10096;SDS011;5087;42.662;23.466;2023-11-18T12:01:15;5.27;;;5.17;;
10096;SDS011;5087;42.662;23.466;2023-11-18T12:03:58;5.20;;;5.10;;
10096;SDS011;5087;42.662;23.466;2023-11-18T12:06:32;5.10;;;5.00;;
10096;SDS011;5087;42.662;23.466;2023-11-18T12:09:03;5.17;;;5.07;;
10096;SDS011;5087;42.662;23.466;2023-11-18T12:11:33;5.40;;;5.30;;
10096;SDS011;5087;42.662;23.466;2023-11-18T12:14:06;5.30;;;5.20;;
10096;SDS011;5087;42.662;23.466;2023-11-18T12:17:01;5.30;;;5.20;;
10096;SDS011;5087;42.662;23.466;2023-11-18T12:19:35;5.17;;;5.07;;
10096;SDS011;5087;42.662;23.466;2023-11-18T12:22:11;5.27;;;5.17;;
10096;SDS011;5087;42.662;23.466;2023-11-18T12:24:45;5.30;;;5.20;;
10096;SDS011;5087;42.662;23.466;2023-11-18T12:33:19;5.60;;;5.50;;
10096;SDS011;5087;42.662;23.466;2023-11-18T12:42:09;5.60;;;5.50;;
10096;SDS011;5087;42.662;23.466;2023-11-18T12:44:57;5.53;;;5.43;;
10096;SDS011;5087;42.662;23.466;2023-11-18T12:47:59;5.70;;;5.60;;
10096;SDS011;5087;42.662;23.466;2023-11-18T12:50:38;5.50;;;5.40;;
10096;SDS011;5087;42.662;23.466;2023-11-18T12:53:06;5.47;;;5.37;;
10096;SDS011;5087;42.662;23.466;2023-11-18T12:55:34;5.40;;;5.30;;
10096;SDS011;5087;42.662;23.466;2023-11-18T12:58:04;5.00;;;4.90;;
10096;SDS011;5087;42.662;23.466;2023-11-18T13:00:31;4.90;;;4.80;;
10096;SDS011;5087;42.662;23.466;2023-11-18T13:03:03;5.20;;;5.10;;
10096;SDS011;5087;42.662;23.466;2023-11-18T13:05:38;5.53;;;5.43;;
10096;SDS011;5087;42.662;23.466;2023-11-18T13:08:10;5.07;;;4.97;;
10096;SDS011;5087;42.662;23.466;2023-11-18T13:10:40;5.40;;;5.30;;
10096;SDS011;5087;42.662;23.466;2023-11-18T13:13:10;5.43;;;5.33;;
10096;SDS011;5087;42.662;23.466;2023-11-18T13:15:46;5.40;;;5.30;;
10096;SDS011;5087;42.662;23.466;2023-11-18T13:18:24;5.43;;;5.33;;
10096;SDS011;5087;42.662;23.466;2023-11-18T13:20:55;5.50;;;5.40;;
10096;SDS011;5087;42.662;23.466;2023-11-18T13:23:33;5.57;;;5.47;;
10096;SDS011;5087;42.662;23.466;2023-11-18T13:26:03;5.20;;;5.10;;
10096;SDS011;5087;42.662;23.466;2023-11-18T13:28:31;4.97;;;4.87;;
10096;SDS011;5087;42.662;23.466;2023-11-18T13:30:59;5.07;;;4.97;;
10096;SDS011;5087;42.662;23.466;2023-11-18T13:33:38;4.97;;;4.87;;
10096;SDS011;5087;42.662;23.466;2023-11-18T13:36:06;4.50;;;4.40;;
10096;SDS011;5087;42.662;23.466;2023-11-18T13:38:40;4.30;;;4.20;;
10096;SDS011;5087;42.662;23.466;2023-11-18T13:41:30;4.60;;;4.50;;
10096;SDS011;5087;42.662;23.466;2023-11-18T13:43:57;4.80;;;4.70;;
10096;SDS011;5087;42.662;23.466;2023-11-18T13:46:32;4.60;;;4.50;;
10096;SDS011;5087;42.662;23.466;2023-11-18T13:49:06;4.23;;;4.13;;
10096;SDS011;5087;42.662;23.466;2023-11-18T13:51:36;4.40;;;4.30;;
10096;SDS011;5087;42.662;23.466;2023-11-18T13:54:03;4.30;;;4.20;;
10096;SDS011;5087;42.662;23.466;2023-11-18T13:56:32;4.17;;;4.07;;
10096;SDS011;5087;42.662;23.466;2023-11-18T13:59:00;4.37;;;4.27;;
10096;SDS011;5087;42.662;23.466;2023-11-18T14:01:35;4.43;;;4.33;;
10096;SDS011;5087;42.662;23.466;2023-11-18T14:04:07;4.23;;;4.13;;
10096;SDS011;5087;42.662;23.466;2023-11-18T14:06:35;4.20;;;4.10;;
10096;SDS011;5087;42.662;23.466;2023-11-18T14:09:03;3.80;;;3.80;;
10096;SDS011;5087;42.662;23.466;2023-11-18T14:11:31;3.80;;;3.80;;
10096;SDS011;5087;42.662;23.466;2023-11-18T14:14:06;3.60;;;3.60;;
10096;SDS011;5087;42.662;23.466;2023-11-18T14:16:34;3.20;;;3.20;;
10096;SDS011;5087;42.662;23.466;2023-11-18T14:19:06;3.00;;;3.00;;
10096;SDS011;5087;42.662;23.466;2023-11-18T14:21:34;2.90;;;2.90;;
10096;SDS011;5087;42.662;23.466;2023-11-18T14:24:01;2.90;;;2.90;;
10096;SDS011;5087;42.662;23.466;2023-11-18T14:26:29;2.60;;;2.60;;
10096;SDS011;5087;42.662;23.466;2023-11-18T14:28:57;3.00;;;3.00;;
10096;SDS011;5087;42.662;23.466;2023-11-18T14:31:24;3.00;;;3.00;;
10096;SDS011;5087;42.662;23.466;2023-11-18T14:33:51;2.97;;;2.97;;
10096;SDS011;5087;42.662;23.466;2023-11-18T14:36:21;3.00;;;3.00;;
10096;SDS011;5087;42.662;23.466;2023-11-18T14:38:52;3.10;;;3.10;;
10096;SDS011;5087;42.662;23.466;2023-11-18T14:41:22;2.90;;;2.90;;
10096;SDS011;5087;42.662;23.466;2023-11-18T14:43:51;3.10;;;3.10;;
10096;SDS011;5087;42.662;23.466;2023-11-18T14:46:18;3.00;;;3.00;;
10096;SDS011;5087;42.662;23.466;2023-11-18T14:48:45;2.90;;;2.90;;
10096;SDS011;5087;42.662;23.466;2023-11-18T14:51:14;2.60;;;2.60;;
10096;SDS011;5087;42.662;23.466;2023-11-18T14:53:42;2.57;;;2.57;;
10096;SDS011;5087;42.662;23.466;2023-11-18T14:56:13;2.73;;;2.73;;
10096;SDS011;5087;42.662;23.466;2023-11-18T14:58:41;2.70;;;2.70;;
10096;SDS011;5087;42.662;23.466;2023-11-18T15:01:19;2.77;;;2.77;;
10096;SDS011;5087;42.662;23.466;2023-11-18T15:03:52;3.03;;;3.03;;
10096;SDS011;5087;42.662;23.466;2023-11-18T15:06:24;3.17;;;3.17;;
10096;SDS011;5087;42.662;23.466;2023-11-18T15:08:53;3.37;;;3.37;;
10096;SDS011;5087;42.662;23.466;2023-11-18T15:11:22;3.47;;;3.47;;
10096;SDS011;5087;42.662;23.466;2023-11-18T15:13:51;3.23;;;3.23;;
10096;SDS011;5087;42.662;23.466;2023-11-18T15:16:20;3.37;;;3.37;;
10096;SDS011;5087;42.662;23.466;2023-11-18T15:18:48;3.37;;;3.37;;
10096;SDS011;5087;42.662;23.466;2023-11-18T15:21:17;3.30;;;3.30;;
10096;SDS011;5087;42.662;23.466;2023-11-18T15:23:45;3.43;;;3.43;;
10096;SDS011;5087;42.662;23.466;2023-11-18T15:26:17;3.57;;;3.57;;
10096;SDS011;5087;42.662;23.466;2023-11-18T15:28:44;3.40;;;3.40;;
10096;SDS011;5087;42.662;23.466;2023-11-18T15:31:11;3.47;;;3.47;;
10096;SDS011;5087;42.662;23.466;2023-11-18T15:33:39;3.43;;;3.43;;